createdAt,value
2017-09-28T00:00:07.510Z,67.90
2017-09-28T00:02:35.023Z,67.90
2017-09-28T00:05:02.714Z,68.00
2017-09-28T00:07:30.283Z,68.10
2017-09-28T00:09:57.962Z,68.10
2017-09-28T00:12:25.514Z,68.00
2017-09-28T00:14:53.066Z,68.20
2017-09-28T00:17:20.604Z,68.20
2017-09-28T00:19:48.170Z,68.30
2017-09-28T00:22:16.439Z,68.30
2017-09-28T00:24:43.963Z,68.30
2017-09-28T00:27:11.549Z,68.50
2017-09-28T00:29:39.071Z,68.60
2017-09-28T00:32:06.640Z,68.50
2017-09-28T00:34:34.191Z,68.50
2017-09-28T00:37:01.740Z,68.80
2017-09-28T00:39:29.275Z,68.80
2017-09-28T00:41:56.818Z,68.90
2017-09-28T00:44:24.400Z,68.90
2017-09-28T00:46:51.991Z,69.00
2017-09-28T00:49:19.541Z,69.00
2017-09-28T00:51:47.107Z,69.00
2017-09-28T00:54:14.650Z,69.00
2017-09-28T00:56:42.155Z,69.00
2017-09-28T00:59:09.746Z,69.20
2017-09-28T01:01:37.302Z,69.30
2017-09-28T01:04:05.598Z,69.60
2017-09-28T01:06:33.174Z,69.60
2017-09-28T01:09:00.779Z,69.50
2017-09-28T01:11:28.342Z,69.60
2017-09-28T01:13:55.879Z,69.50
2017-09-28T01:16:23.452Z,69.60
2017-09-28T01:18:51.748Z,69.70
2017-09-28T01:21:20.052Z,69.60
2017-09-28T01:23:47.577Z,69.60
2017-09-28T01:26:15.868Z,69.50
2017-09-28T01:28:43.406Z,69.50
2017-09-28T01:31:10.910Z,69.40
2017-09-28T01:33:38.463Z,69.60
2017-09-28T01:36:06.023Z,69.60
2017-09-28T01:38:33.618Z,69.70
2017-09-28T01:41:01.215Z,69.60
2017-09-28T01:43:29.016Z,69.50
2017-09-28T01:45:56.531Z,69.50
2017-09-28T01:48:24.116Z,69.50
2017-09-28T01:50:51.667Z,69.60
2017-09-28T01:53:19.257Z,69.50
2017-09-28T01:55:46.835Z,69.50
2017-09-28T01:58:15.464Z,69.50
2017-09-28T02:00:43.036Z,69.30
2017-09-28T02:03:10.591Z,69.40
2017-09-28T02:05:38.168Z,69.40
2017-09-28T02:08:05.697Z,69.40
2017-09-28T02:10:33.979Z,69.30
2017-09-28T02:13:02.286Z,69.20
2017-09-28T02:15:29.814Z,69.20
2017-09-28T02:17:57.415Z,69.30
2017-09-28T02:20:24.955Z,69.20
2017-09-28T02:22:52.519Z,69.20
2017-09-28T02:25:20.074Z,69.20
2017-09-28T02:27:47.946Z,69.10
2017-09-28T02:30:15.740Z,69.10
2017-09-28T02:32:43.302Z,70.00
2017-09-28T02:35:10.813Z,69.30
2017-09-28T02:37:39.127Z,69.40
2017-09-28T02:40:06.797Z,69.30
2017-09-28T02:42:34.382Z,69.40
2017-09-28T02:45:01.925Z,69.30
2017-09-28T02:47:29.435Z,69.30
2017-09-28T02:49:57.039Z,69.20
2017-09-28T02:52:24.600Z,69.30
2017-09-28T02:54:52.100Z,69.30
2017-09-28T02:57:20.393Z,69.20
2017-09-28T02:59:47.946Z,69.20
2017-09-28T03:02:16.217Z,69.20
2017-09-28T03:04:43.742Z,69.20
2017-09-28T03:07:11.274Z,69.20
2017-09-28T03:09:38.794Z,69.30
2017-09-28T03:12:07.063Z,69.40
2017-09-28T03:14:34.619Z,69.30
2017-09-28T03:17:02.153Z,69.40
2017-09-28T03:19:29.709Z,69.30
2017-09-28T03:21:57.214Z,69.30
2017-09-28T03:24:24.773Z,69.20
2017-09-28T03:26:52.272Z,69.20
2017-09-28T03:29:19.872Z,69.10
2017-09-28T03:31:47.379Z,69.10
2017-09-28T03:34:15.772Z,69.10
2017-09-28T03:36:43.295Z,69.10
2017-09-28T03:39:11.174Z,69.30
2017-09-28T03:41:38.696Z,69.10
2017-09-28T03:44:06.971Z,68.90
2017-09-28T03:46:34.524Z,68.90
2017-09-28T03:49:02.086Z,68.90
2017-09-28T03:51:29.610Z,68.80
2017-09-28T03:53:57.173Z,68.80
2017-09-28T03:56:24.722Z,68.80
2017-09-28T03:58:52.263Z,68.60
2017-09-28T04:01:19.814Z,68.70
2017-09-28T04:03:47.365Z,68.70
2017-09-28T04:06:15.655Z,68.80
2017-09-28T04:08:43.151Z,68.60
2017-09-28T04:11:10.737Z,68.70
2017-09-28T04:13:38.288Z,68.70
2017-09-28T04:16:06.248Z,68.60
2017-09-28T04:18:33.797Z,68.50
2017-09-28T04:21:01.320Z,68.40
2017-09-28T04:23:28.884Z,68.40
2017-09-28T04:25:56.409Z,68.40
2017-09-28T04:28:23.916Z,69.20
2017-09-28T04:30:51.444Z,68.40
2017-09-28T04:33:19.722Z,68.50
2017-09-28T04:35:48.043Z,68.60
2017-09-28T04:38:15.545Z,68.50
2017-09-28T04:40:43.827Z,68.70
2017-09-28T04:43:11.391Z,68.70
2017-09-28T04:45:39.670Z,68.50
2017-09-28T04:48:07.930Z,68.40
2017-09-28T04:50:36.245Z,68.50
2017-09-28T04:53:03.757Z,68.50
2017-09-28T04:55:31.320Z,68.40
2017-09-28T04:57:59.641Z,68.30
2017-09-28T05:00:27.164Z,68.30
2017-09-28T05:02:54.699Z,68.30
2017-09-28T05:05:22.221Z,68.40
2017-09-28T05:07:49.737Z,68.30
2017-09-28T05:10:17.308Z,68.40
2017-09-28T05:12:44.857Z,68.30
2017-09-28T05:15:12.359Z,68.20
2017-09-28T05:17:39.896Z,68.10
2017-09-28T05:20:07.560Z,68.10
2017-09-28T05:22:35.082Z,68.10
2017-09-28T05:25:02.660Z,68.00
2017-09-28T05:27:30.990Z,68.00
2017-09-28T05:29:58.501Z,67.90
2017-09-28T05:32:27.616Z,67.80
2017-09-28T05:34:55.138Z,67.80
2017-09-28T05:37:22.720Z,67.70
2017-09-28T05:39:50.216Z,67.80
2017-09-28T05:42:17.780Z,67.80
2017-09-28T05:44:45.298Z,67.60
2017-09-28T05:47:13.571Z,67.60
2017-09-28T05:49:41.898Z,67.60
2017-09-28T05:52:09.456Z,67.50
2017-09-28T05:54:36.985Z,67.70
2017-09-28T05:57:04.497Z,67.60
2017-09-28T05:59:32.042Z,67.50
2017-09-28T06:01:59.631Z,67.50
2017-09-28T06:04:27.232Z,67.40
2017-09-28T06:06:54.742Z,67.40
2017-09-28T06:09:22.265Z,67.40
2017-09-28T06:11:49.790Z,67.30
2017-09-28T06:14:17.338Z,67.30
2017-09-28T06:16:44.844Z,67.20
2017-09-28T06:19:12.369Z,67.10
2017-09-28T06:21:40.651Z,67.00
2017-09-28T06:24:08.216Z,67.00
2017-09-28T06:26:35.757Z,66.90
2017-09-28T06:29:03.280Z,66.70
2017-09-28T06:31:30.840Z,66.40
2017-09-28T06:33:58.416Z,66.40
2017-09-28T06:36:25.936Z,66.50
2017-09-28T06:38:53.470Z,66.30
2017-09-28T06:41:21.025Z,66.30
2017-09-28T06:43:48.592Z,66.10
2017-09-28T06:46:16.103Z,66.10
2017-09-28T06:48:43.700Z,66.10
2017-09-28T06:51:11.204Z,65.90
2017-09-28T06:53:38.769Z,65.80
2017-09-28T06:56:06.300Z,65.60
2017-09-28T06:58:33.821Z,65.60
2017-09-28T07:01:02.156Z,65.50
2017-09-28T07:03:29.874Z,65.50
2017-09-28T07:05:57.539Z,65.30
2017-09-28T07:08:25.080Z,65.20
2017-09-28T07:10:53.393Z,65.00
2017-09-28T07:13:21.118Z,65.00
2017-09-28T07:15:48.658Z,65.00
2017-09-28T07:18:16.178Z,64.50
2017-09-28T07:20:43.738Z,64.40
2017-09-28T07:23:11.309Z,64.20
2017-09-28T07:25:38.905Z,63.90
2017-09-28T07:28:06.495Z,63.70
2017-09-28T07:30:34.185Z,63.50
2017-09-28T07:33:01.968Z,63.50
2017-09-28T07:35:29.930Z,63.00
2017-09-28T07:37:57.444Z,62.70
2017-09-28T07:40:24.971Z,62.80
2017-09-28T07:42:52.520Z,62.60
2017-09-28T07:45:20.033Z,62.60
2017-09-28T07:47:47.526Z,62.40
2017-09-28T07:50:15.205Z,62.30
2017-09-28T07:52:42.728Z,62.20
2017-09-28T07:55:10.246Z,62.20
2017-09-28T07:57:37.811Z,62.00
2017-09-28T08:00:06.443Z,61.80
2017-09-28T08:02:33.991Z,61.70
2017-09-28T08:05:01.543Z,61.70
2017-09-28T08:07:30.666Z,61.60
2017-09-28T08:09:58.208Z,61.50
2017-09-28T08:12:25.716Z,61.30
2017-09-28T08:14:53.289Z,60.90
2017-09-28T08:17:21.574Z,60.70
2017-09-28T08:19:49.898Z,60.60
2017-09-28T08:22:17.464Z,61.40
2017-09-28T08:24:44.980Z,60.40
2017-09-28T08:27:12.513Z,60.10
2017-09-28T08:29:40.121Z,59.60
2017-09-28T08:32:09.036Z,59.50
2017-09-28T08:34:36.594Z,59.30
2017-09-28T08:37:04.094Z,59.20
2017-09-28T08:39:31.717Z,59.20
2017-09-28T08:41:59.228Z,59.00
2017-09-28T08:44:28.243Z,57.90
2017-09-28T08:46:55.825Z,57.80
2017-09-28T08:49:23.367Z,57.80
2017-09-28T08:51:50.935Z,57.50
2017-09-28T08:54:18.493Z,57.40
2017-09-28T08:56:45.997Z,56.90
2017-09-28T08:59:13.539Z,56.50
2017-09-28T09:01:41.030Z,56.00
2017-09-28T09:04:09.309Z,54.30
2017-09-28T09:06:37.653Z,54.20
2017-09-28T09:09:05.221Z,54.10
2017-09-28T09:11:32.768Z,53.80
2017-09-28T09:14:00.287Z,54.40
2017-09-28T09:16:27.828Z,53.30
2017-09-28T09:18:55.387Z,53.30
2017-09-28T09:21:23.649Z,53.00
2017-09-28T09:23:51.338Z,52.90
2017-09-28T09:26:20.732Z,52.80
2017-09-28T09:28:50.943Z,52.40
2017-09-28T09:31:21.763Z,52.50
2017-09-28T09:33:49.309Z,51.60
2017-09-28T09:36:18.049Z,51.60
2017-09-28T09:38:47.183Z,51.60
2017-09-28T09:41:15.798Z,51.60
2017-09-28T09:43:44.325Z,51.50
2017-09-28T09:46:13.121Z,51.30
2017-09-28T09:48:41.665Z,51.40
2017-09-28T09:51:09.604Z,50.80
2017-09-28T09:53:58.082Z,50.60
2017-09-28T10:02:33.459Z,51.10
2017-09-28T10:18:17.927Z,51.30
2017-09-28T10:20:47.629Z,51.80
2017-09-28T10:23:19.985Z,51.80
2017-09-28T10:28:34.165Z,51.30
2017-09-28T10:31:35.265Z,51.10
2017-09-28T10:38:28.481Z,51.00
2017-09-28T10:40:57.414Z,50.50
2017-09-28T10:52:18.783Z,48.90
2017-09-28T11:07:15.959Z,46.40
2017-09-28T11:12:46.861Z,46.40
2017-09-28T11:15:15.347Z,46.30
2017-09-28T11:17:44.613Z,45.90
2017-09-28T11:23:16.123Z,45.30
2017-09-28T11:25:46.832Z,44.90
2017-09-28T11:28:17.116Z,44.70
2017-09-28T11:30:44.898Z,44.70
2017-09-28T11:33:13.770Z,44.70
2017-09-28T11:35:43.202Z,44.50
2017-09-28T11:38:11.380Z,44.30
2017-09-28T11:40:44.090Z,44.20
2017-09-28T11:43:11.606Z,44.00
2017-09-28T11:45:39.136Z,44.10
2017-09-28T11:48:06.696Z,44.00
2017-09-28T11:50:35.026Z,43.50
2017-09-28T11:53:03.818Z,43.50
2017-09-28T11:55:31.597Z,43.20
2017-09-28T11:58:02.384Z,43.30
2017-09-28T12:00:29.909Z,43.50
2017-09-28T12:02:57.606Z,43.40
2017-09-28T12:05:25.159Z,43.20
2017-09-28T12:07:52.789Z,43.40
2017-09-28T12:10:20.316Z,43.40
2017-09-28T12:12:48.625Z,43.20
2017-09-28T12:15:16.838Z,43.10
2017-09-28T12:17:44.516Z,43.20
2017-09-28T12:20:12.095Z,43.00
2017-09-28T12:22:39.643Z,42.90
2017-09-28T12:25:07.155Z,42.80
2017-09-28T12:27:34.676Z,43.60
2017-09-28T12:30:02.259Z,42.50
2017-09-28T12:32:29.795Z,42.70
2017-09-28T12:34:57.302Z,41.90
2017-09-28T12:37:24.806Z,42.20
2017-09-28T12:39:52.382Z,42.20
2017-09-28T12:42:19.965Z,41.70
2017-09-28T12:44:47.547Z,41.80
2017-09-28T12:47:15.048Z,41.60
2017-09-28T12:49:42.604Z,41.50
2017-09-28T12:52:10.191Z,41.50
2017-09-28T12:54:37.721Z,41.50
2017-09-28T12:57:05.274Z,41.40
2017-09-28T12:59:33.604Z,41.60
2017-09-28T13:02:01.725Z,41.50
2017-09-28T13:04:30.031Z,41.90
2017-09-28T13:06:57.570Z,41.70
2017-09-28T13:09:25.878Z,41.80
2017-09-28T13:11:53.393Z,41.80
2017-09-28T13:14:20.888Z,41.90
2017-09-28T13:16:49.307Z,41.90
2017-09-28T13:19:17.488Z,41.60
2017-09-28T13:21:45.192Z,41.60
2017-09-28T13:24:12.708Z,41.40
2017-09-28T13:26:40.241Z,41.60
2017-09-28T13:29:07.868Z,41.70
2017-09-28T13:31:35.385Z,41.70
2017-09-28T13:34:02.924Z,41.60
2017-09-28T13:36:31.247Z,41.60
2017-09-28T13:38:58.774Z,41.60
2017-09-28T13:41:26.301Z,41.70
2017-09-28T13:43:53.902Z,41.60
2017-09-28T13:46:21.418Z,41.80
2017-09-28T13:48:48.939Z,41.60
2017-09-28T13:51:16.513Z,41.50
2017-09-28T13:53:44.048Z,41.70
2017-09-28T13:56:11.564Z,41.70
2017-09-28T13:58:39.114Z,41.70
2017-09-28T14:01:06.701Z,41.70
2017-09-28T14:03:34.235Z,41.70
2017-09-28T14:06:01.729Z,41.40
2017-09-28T14:08:30.050Z,41.50
2017-09-28T14:10:58.332Z,41.60
2017-09-28T14:13:26.709Z,41.70
2017-09-28T14:15:54.306Z,41.70
2017-09-28T14:18:21.855Z,41.90
2017-09-28T14:20:49.453Z,41.80
2017-09-28T14:23:17.041Z,41.90
2017-09-28T14:25:44.594Z,41.90
2017-09-28T14:28:12.948Z,42.00
2017-09-28T14:30:41.080Z,42.00
2017-09-28T14:33:08.636Z,42.00
2017-09-28T14:35:36.167Z,42.30
2017-09-28T14:38:04.620Z,42.20
2017-09-28T14:40:34.718Z,42.10
2017-09-28T14:46:27.396Z,42.30
2017-09-28T14:48:56.115Z,42.40
2017-09-28T14:51:24.035Z,42.40
2017-09-28T14:53:52.587Z,42.30
2017-09-28T14:56:21.554Z,42.50
2017-09-28T14:58:49.082Z,42.50
2017-09-28T15:01:17.580Z,42.70
2017-09-28T15:04:01.899Z,42.50
2017-09-28T15:06:41.519Z,42.20
2017-09-28T15:09:11.328Z,42.60
2017-09-28T15:11:38.895Z,42.70
2017-09-28T15:14:06.423Z,42.80
2017-09-28T15:16:34.708Z,42.70
2017-09-28T15:19:03.205Z,42.70
2017-09-28T15:21:30.798Z,42.70
2017-09-28T15:23:58.526Z,42.70
2017-09-28T15:26:26.137Z,42.80
2017-09-28T15:28:53.673Z,42.90
2017-09-28T15:31:21.214Z,42.90
2017-09-28T15:33:48.880Z,42.80
2017-09-28T15:36:17.275Z,42.90
2017-09-28T15:38:45.608Z,42.80
2017-09-28T15:41:13.193Z,42.90
2017-09-28T15:43:40.814Z,42.90
2017-09-28T15:46:08.424Z,43.00
2017-09-28T15:48:36.046Z,43.40
2017-09-28T15:51:04.456Z,42.90
2017-09-28T15:53:32.816Z,43.00
2017-09-28T15:56:00.394Z,43.00
2017-09-28T15:58:27.952Z,43.00
2017-09-28T16:00:56.445Z,42.90
2017-09-28T16:03:24.103Z,42.90
2017-09-28T16:05:52.336Z,42.90
2017-09-28T16:08:19.856Z,43.00
2017-09-28T16:10:47.481Z,43.20
2017-09-28T16:13:15.811Z,43.50
2017-09-28T16:15:43.376Z,43.40
2017-09-28T16:18:10.999Z,43.50
2017-09-28T16:20:38.616Z,43.70
2017-09-28T16:23:06.174Z,43.80
2017-09-28T16:25:33.725Z,44.50
2017-09-28T16:28:01.273Z,44.20
2017-09-28T16:30:28.902Z,44.30
2017-09-28T16:32:56.426Z,44.50
2017-09-28T16:35:23.966Z,44.70
2017-09-28T16:37:51.548Z,44.90
2017-09-28T16:40:19.887Z,45.20
2017-09-28T16:42:48.357Z,45.20
2017-09-28T16:45:16.016Z,45.20
2017-09-28T16:47:43.547Z,45.40
2017-09-28T16:50:11.951Z,45.60
2017-09-28T16:52:39.504Z,45.60
2017-09-28T16:55:07.042Z,45.70
2017-09-28T16:57:35.637Z,45.90
2017-09-28T17:00:03.424Z,46.10
2017-09-28T17:02:31.385Z,46.20
2017-09-28T17:04:58.967Z,46.20
2017-09-28T17:07:26.491Z,46.30
2017-09-28T17:09:54.080Z,46.40
2017-09-28T17:12:21.671Z,46.50
2017-09-28T17:14:49.226Z,46.60
2017-09-28T17:17:16.799Z,46.30
2017-09-28T17:19:44.382Z,46.70
2017-09-28T17:22:12.678Z,46.90
2017-09-28T17:24:40.221Z,46.90
2017-09-28T17:27:08.525Z,47.30
2017-09-28T17:29:36.350Z,47.30
2017-09-28T17:32:04.721Z,47.80
2017-09-28T17:34:32.309Z,47.80
2017-09-28T17:36:59.870Z,48.00
2017-09-28T17:39:27.440Z,48.20
2017-09-28T17:41:54.954Z,48.60
2017-09-28T17:44:22.561Z,48.60
2017-09-28T17:46:50.112Z,48.90
2017-09-28T17:49:17.724Z,49.00
2017-09-28T17:51:45.289Z,49.10
2017-09-28T17:54:12.913Z,49.30
2017-09-28T17:56:40.574Z,49.40
2017-09-28T17:59:08.089Z,49.40
2017-09-28T18:01:36.453Z,49.80
2017-09-28T18:04:04.102Z,49.80
2017-09-28T18:06:31.668Z,50.00
2017-09-28T18:08:59.247Z,50.80
2017-09-28T18:11:26.808Z,50.40
2017-09-28T18:13:55.245Z,50.60
2017-09-28T18:16:22.787Z,50.60
2017-09-28T18:18:50.360Z,50.90
2017-09-28T18:21:17.930Z,51.10
2017-09-28T18:23:45.520Z,51.30
2017-09-28T18:26:13.129Z,51.50
2017-09-28T18:28:40.664Z,51.60
2017-09-28T18:31:10.248Z,52.00
2017-09-28T18:33:38.750Z,52.00
2017-09-28T18:36:06.391Z,52.00
2017-09-28T18:38:33.989Z,52.10
2017-09-28T18:41:01.585Z,52.20
2017-09-28T18:43:29.962Z,52.20
2017-09-28T18:45:58.305Z,52.20
2017-09-28T18:48:25.887Z,52.30
2017-09-28T18:50:53.471Z,52.40
2017-09-28T18:53:21.163Z,52.50
2017-09-28T18:55:49.628Z,52.40
2017-09-28T18:58:18.988Z,52.40
2017-09-28T19:00:48.369Z,52.40
2017-09-28T19:03:15.957Z,52.40
2017-09-28T19:05:43.675Z,52.30
2017-09-28T19:08:11.319Z,52.40
2017-09-28T19:10:38.921Z,52.50
2017-09-28T19:13:06.564Z,52.50
2017-09-28T19:15:35.140Z,52.40
2017-09-28T19:18:02.783Z,52.50
2017-09-28T19:20:30.369Z,52.60
2017-09-28T19:22:58.728Z,52.50
2017-09-28T19:25:26.246Z,52.50
2017-09-28T19:27:53.900Z,52.60
2017-09-28T19:30:21.566Z,52.70
2017-09-28T19:32:49.100Z,52.70
2017-09-28T19:35:17.476Z,52.80
2017-09-28T19:37:45.825Z,52.70
2017-09-28T19:40:13.437Z,52.60
2017-09-28T19:42:41.054Z,52.60
2017-09-28T19:45:08.871Z,52.60
2017-09-28T19:47:36.454Z,52.70
2017-09-28T19:50:05.374Z,52.80
2017-09-28T19:52:33.007Z,52.80
2017-09-28T19:55:01.461Z,52.80
2017-09-28T19:57:29.042Z,52.80
2017-09-28T19:59:56.577Z,52.80
2017-09-28T20:02:24.166Z,52.80
2017-09-28T20:04:51.826Z,52.90
2017-09-28T20:07:19.788Z,53.00
2017-09-28T20:09:48.107Z,53.10
2017-09-28T20:12:15.835Z,53.10
2017-09-28T20:14:45.817Z,53.20
2017-09-28T20:17:13.427Z,53.20
2017-09-28T20:19:41.040Z,53.20
2017-09-28T20:22:08.821Z,53.30
2017-09-28T20:24:36.499Z,53.40
2017-09-28T20:27:04.063Z,53.60
2017-09-28T20:29:32.156Z,53.70
2017-09-28T20:31:59.803Z,53.70
2017-09-28T20:34:27.381Z,53.70
2017-09-28T20:36:54.893Z,53.80
2017-09-28T20:39:22.938Z,53.90
2017-09-28T20:41:50.483Z,54.10
2017-09-28T20:44:18.781Z,54.30
2017-09-28T20:46:54.189Z,54.30
2017-09-28T20:49:21.782Z,54.40
2017-09-28T20:51:50.137Z,54.60
2017-09-28T20:54:17.716Z,54.50
2017-09-28T20:56:48.213Z,54.80
2017-09-28T20:59:16.812Z,54.80
2017-09-28T21:01:45.434Z,54.90
2017-09-28T21:04:13.216Z,55.10
2017-09-28T21:06:45.696Z,55.20
2017-09-28T21:09:13.346Z,55.50
2017-09-28T21:11:44.468Z,55.50
2017-09-28T21:14:15.717Z,55.70
2017-09-28T21:16:43.302Z,55.70
2017-09-28T21:19:10.900Z,55.70
2017-09-28T21:21:39.659Z,55.80
2017-09-28T21:24:07.221Z,55.90
2017-09-28T21:26:36.565Z,56.00
2017-09-28T21:29:04.888Z,56.20
2017-09-28T21:31:32.521Z,56.20
2017-09-28T21:34:01.167Z,56.20
2017-09-28T21:36:29.433Z,56.30
2017-09-28T21:38:57.738Z,56.40
2017-09-28T21:41:25.267Z,56.40
2017-09-28T21:43:52.822Z,56.60
2017-09-28T21:46:20.328Z,56.70
2017-09-28T21:48:49.504Z,56.90
2017-09-28T21:51:17.370Z,56.90
2017-09-28T21:53:45.044Z,57.00
2017-09-28T21:56:12.568Z,57.10
2017-09-28T21:58:40.102Z,57.10
2017-09-28T22:01:07.658Z,57.20
2017-09-28T22:03:35.184Z,57.20
2017-09-28T22:06:02.760Z,57.20
2017-09-28T22:08:31.075Z,57.40
2017-09-28T22:10:58.638Z,57.40
2017-09-28T22:13:26.159Z,57.40
2017-09-28T22:15:54.428Z,57.50
2017-09-28T22:18:22.754Z,57.60
2017-09-28T22:20:51.084Z,57.70
2017-09-28T22:23:18.619Z,57.70
2017-09-28T22:25:46.228Z,57.70
2017-09-28T22:28:13.779Z,57.60
2017-09-28T22:30:41.406Z,57.70
2017-09-28T22:33:08.960Z,57.70
2017-09-28T22:35:36.537Z,57.70
2017-09-28T22:38:04.097Z,57.60
2017-09-28T22:40:31.615Z,57.50
2017-09-28T22:42:59.956Z,57.50
2017-09-28T22:45:27.486Z,57.50
2017-09-28T22:47:55.005Z,57.40
2017-09-28T22:50:22.754Z,57.50
2017-09-28T22:52:50.328Z,57.50
2017-09-28T22:55:17.849Z,57.40
2017-09-28T22:57:46.151Z,57.30
2017-09-28T23:00:13.689Z,57.30
2017-09-28T23:02:41.229Z,57.30
2017-09-28T23:05:08.753Z,57.30
2017-09-28T23:07:36.309Z,57.30
2017-09-28T23:10:05.003Z,57.20
2017-09-28T23:12:32.531Z,57.20
2017-09-28T23:15:00.111Z,57.40
2017-09-28T23:17:27.813Z,57.20
2017-09-28T23:19:55.425Z,57.20
2017-09-28T23:22:22.943Z,57.30
2017-09-28T23:24:53.021Z,57.60
2017-09-28T23:27:20.726Z,57.20
2017-09-28T23:29:48.308Z,57.00
2017-09-28T23:32:15.920Z,57.00
2017-09-28T23:34:43.596Z,57.20
2017-09-28T23:37:12.017Z,57.20
2017-09-28T23:39:39.579Z,57.10
2017-09-28T23:42:07.141Z,57.10
2017-09-28T23:44:34.700Z,57.10
2017-09-28T23:47:02.250Z,57.20
2017-09-28T23:49:29.780Z,57.20
2017-09-28T23:51:57.282Z,57.20
2017-09-28T23:54:24.812Z,57.20
2017-09-28T23:56:52.363Z,57.20
2017-09-28T23:59:20.688Z,57.30
